sensor_id;sensor_type;location;lat;lon;timestamp;P1;durP1;ratioP1;P2;durP2;ratioP2
12585;SDS011;6358;50.760;0.282;2023-11-19T00:01:41;7.80;;;3.07;;
12585;SDS011;6358;50.760;0.282;2023-11-19T00:04:07;7.80;;;3.47;;
12585;SDS011;6358;50.760;0.282;2023-11-19T00:06:33;8.17;;;3.40;;
12585;SDS011;6358;50.760;0.282;2023-11-19T00:09:00;11.37;;;3.00;;
12585;SDS011;6358;50.760;0.282;2023-11-19T00:11:26;7.43;;;3.13;;
12585;SDS011;6358;50.760;0.282;2023-11-19T00:13:52;9.40;;;3.47;;
12585;SDS011;6358;50.760;0.282;2023-11-19T00:16:18;7.50;;;3.07;;
12585;SDS011;6358;50.760;0.282;2023-11-19T00:18:44;11.23;;;3.57;;
12585;SDS011;6358;50.760;0.282;2023-11-19T00:21:10;5.87;;;3.10;;
12585;SDS011;6358;50.760;0.282;2023-11-19T00:23:37;9.43;;;3.57;;
12585;SDS011;6358;50.760;0.282;2023-11-19T00:26:03;9.77;;;3.40;;
12585;SDS011;6358;50.760;0.282;2023-11-19T00:28:31;7.10;;;3.00;;
12585;SDS011;6358;50.760;0.282;2023-11-19T00:30:58;8.53;;;3.53;;
12585;SDS011;6358;50.760;0.282;2023-11-19T00:33:24;6.97;;;3.40;;
12585;SDS011;6358;50.760;0.282;2023-11-19T00:35:50;7.43;;;3.53;;
12585;SDS011;6358;50.760;0.282;2023-11-19T00:38:16;9.80;;;3.20;;
12585;SDS011;6358;50.760;0.282;2023-11-19T00:40:42;6.57;;;2.90;;
12585;SDS011;6358;50.760;0.282;2023-11-19T00:43:11;8.43;;;3.03;;
12585;SDS011;6358;50.760;0.282;2023-11-19T00:45:37;9.37;;;3.63;;
12585;SDS011;6358;50.760;0.282;2023-11-19T00:48:03;8.23;;;3.20;;
12585;SDS011;6358;50.760;0.282;2023-11-19T00:50:29;9.90;;;3.20;;
12585;SDS011;6358;50.760;0.282;2023-11-19T00:52:56;8.50;;;3.40;;
12585;SDS011;6358;50.760;0.282;2023-11-19T00:55:22;7.10;;;3.00;;
12585;SDS011;6358;50.760;0.282;2023-11-19T00:57:48;8.87;;;3.30;;
12585;SDS011;6358;50.760;0.282;2023-11-19T01:00:14;8.17;;;3.30;;
12585;SDS011;6358;50.760;0.282;2023-11-19T01:02:46;9.83;;;3.27;;
12585;SDS011;6358;50.760;0.282;2023-11-19T01:05:14;8.17;;;3.53;;
12585;SDS011;6358;50.760;0.282;2023-11-19T01:07:41;11.00;;;3.63;;
12585;SDS011;6358;50.760;0.282;2023-11-19T01:10:07;7.97;;;3.17;;
12585;SDS011;6358;50.760;0.282;2023-11-19T01:12:33;7.60;;;3.30;;
12585;SDS011;6358;50.760;0.282;2023-11-19T01:14:59;9.27;;;3.30;;
12585;SDS011;6358;50.760;0.282;2023-11-19T01:17:26;8.00;;;3.27;;
12585;SDS011;6358;50.760;0.282;2023-11-19T01:19:52;8.57;;;3.70;;
12585;SDS011;6358;50.760;0.282;2023-11-19T01:22:18;10.30;;;3.73;;
12585;SDS011;6358;50.760;0.282;2023-11-19T01:24:44;8.10;;;3.27;;
12585;SDS011;6358;50.760;0.282;2023-11-19T01:27:10;9.27;;;3.73;;
12585;SDS011;6358;50.760;0.282;2023-11-19T01:29:36;8.40;;;3.60;;
12585;SDS011;6358;50.760;0.282;2023-11-19T01:32:03;11.30;;;3.57;;
12585;SDS011;6358;50.760;0.282;2023-11-19T01:34:29;9.47;;;3.50;;
12585;SDS011;6358;50.760;0.282;2023-11-19T01:36:55;8.93;;;3.23;;
12585;SDS011;6358;50.760;0.282;2023-11-19T01:39:21;9.43;;;3.43;;
12585;SDS011;6358;50.760;0.282;2023-11-19T01:41:47;7.43;;;3.40;;
12585;SDS011;6358;50.760;0.282;2023-11-19T01:44:13;9.03;;;3.03;;
12585;SDS011;6358;50.760;0.282;2023-11-19T01:46:43;7.97;;;3.63;;
12585;SDS011;6358;50.760;0.282;2023-11-19T01:49:10;7.97;;;3.57;;
12585;SDS011;6358;50.760;0.282;2023-11-19T01:51:37;8.00;;;3.33;;
12585;SDS011;6358;50.760;0.282;2023-11-19T01:54:03;7.33;;;2.90;;
12585;SDS011;6358;50.760;0.282;2023-11-19T01:56:29;8.53;;;3.57;;
12585;SDS011;6358;50.760;0.282;2023-11-19T01:58:56;9.67;;;3.40;;
12585;SDS011;6358;50.760;0.282;2023-11-19T02:01:22;10.50;;;3.77;;
12585;SDS011;6358;50.760;0.282;2023-11-19T02:03:49;9.20;;;3.13;;
12585;SDS011;6358;50.760;0.282;2023-11-19T02:06:15;8.93;;;3.37;;
12585;SDS011;6358;50.760;0.282;2023-11-19T02:08:42;9.10;;;3.30;;
12585;SDS011;6358;50.760;0.282;2023-11-19T02:11:08;7.87;;;3.17;;
12585;SDS011;6358;50.760;0.282;2023-11-19T02:13:35;9.27;;;3.60;;
12585;SDS011;6358;50.760;0.282;2023-11-19T02:16:03;7.57;;;3.10;;
12585;SDS011;6358;50.760;0.282;2023-11-19T02:18:29;9.43;;;3.33;;
12585;SDS011;6358;50.760;0.282;2023-11-19T02:20:56;8.73;;;3.30;;
12585;SDS011;6358;50.760;0.282;2023-11-19T02:23:22;8.93;;;3.37;;
12585;SDS011;6358;50.760;0.282;2023-11-19T02:28:33;8.63;;;3.10;;
12585;SDS011;6358;50.760;0.282;2023-11-19T02:31:01;7.97;;;3.37;;
12585;SDS011;6358;50.760;0.282;2023-11-19T02:33:30;7.30;;;3.00;;
12585;SDS011;6358;50.760;0.282;2023-11-19T02:35:56;9.47;;;3.20;;
12585;SDS011;6358;50.760;0.282;2023-11-19T02:38:22;10.10;;;3.77;;
12585;SDS011;6358;50.760;0.282;2023-11-19T02:40:48;7.20;;;3.13;;
12585;SDS011;6358;50.760;0.282;2023-11-19T02:43:15;8.07;;;3.53;;
12585;SDS011;6358;50.760;0.282;2023-11-19T02:45:41;9.23;;;3.37;;
12585;SDS011;6358;50.760;0.282;2023-11-19T02:48:10;9.27;;;3.80;;
12585;SDS011;6358;50.760;0.282;2023-11-19T02:50:57;9.73;;;3.80;;
12585;SDS011;6358;50.760;0.282;2023-11-19T02:53:23;7.57;;;3.17;;
12585;SDS011;6358;50.760;0.282;2023-11-19T02:55:50;11.10;;;3.70;;
12585;SDS011;6358;50.760;0.282;2023-11-19T02:58:16;9.90;;;3.60;;
12585;SDS011;6358;50.760;0.282;2023-11-19T03:00:48;11.93;;;3.80;;
12585;SDS011;6358;50.760;0.282;2023-11-19T03:03:27;10.93;;;3.80;;
12585;SDS011;6358;50.760;0.282;2023-11-19T03:06:03;9.83;;;3.57;;
12585;SDS011;6358;50.760;0.282;2023-11-19T03:08:29;10.93;;;3.10;;
12585;SDS011;6358;50.760;0.282;2023-11-19T03:10:56;9.00;;;4.07;;
12585;SDS011;6358;50.760;0.282;2023-11-19T03:13:22;11.40;;;3.90;;
12585;SDS011;6358;50.760;0.282;2023-11-19T03:15:48;8.73;;;3.30;;
12585;SDS011;6358;50.760;0.282;2023-11-19T03:18:14;8.17;;;3.20;;
12585;SDS011;6358;50.760;0.282;2023-11-19T03:20:40;7.90;;;3.67;;
12585;SDS011;6358;50.760;0.282;2023-11-19T03:23:06;7.60;;;3.40;;
12585;SDS011;6358;50.760;0.282;2023-11-19T03:25:32;10.47;;;3.37;;
12585;SDS011;6358;50.760;0.282;2023-11-19T03:27:59;8.73;;;3.87;;
12585;SDS011;6358;50.760;0.282;2023-11-19T03:30:27;10.20;;;3.57;;
12585;SDS011;6358;50.760;0.282;2023-11-19T03:32:53;9.37;;;3.50;;
12585;SDS011;6358;50.760;0.282;2023-11-19T03:35:20;9.60;;;3.37;;
12585;SDS011;6358;50.760;0.282;2023-11-19T03:37:46;9.37;;;4.03;;
12585;SDS011;6358;50.760;0.282;2023-11-19T03:40:13;9.40;;;3.70;;
12585;SDS011;6358;50.760;0.282;2023-11-19T03:42:39;10.03;;;3.60;;
12585;SDS011;6358;50.760;0.282;2023-11-19T03:45:06;8.90;;;3.73;;
12585;SDS011;6358;50.760;0.282;2023-11-19T03:47:35;7.93;;;3.23;;
12585;SDS011;6358;50.760;0.282;2023-11-19T03:50:01;12.03;;;4.10;;
12585;SDS011;6358;50.760;0.282;2023-11-19T03:52:28;9.40;;;3.70;;
12585;SDS011;6358;50.760;0.282;2023-11-19T03:54:54;8.50;;;3.10;;
12585;SDS011;6358;50.760;0.282;2023-11-19T03:57:20;8.90;;;3.57;;
12585;SDS011;6358;50.760;0.282;2023-11-19T03:59:46;10.67;;;3.70;;
12585;SDS011;6358;50.760;0.282;2023-11-19T04:02:13;8.07;;;3.57;;
12585;SDS011;6358;50.760;0.282;2023-11-19T04:04:39;10.00;;;3.80;;
12585;SDS011;6358;50.760;0.282;2023-11-19T04:07:05;9.20;;;3.57;;
12585;SDS011;6358;50.760;0.282;2023-11-19T04:09:31;10.37;;;3.57;;
12585;SDS011;6358;50.760;0.282;2023-11-19T04:12:02;10.60;;;3.43;;
12585;SDS011;6358;50.760;0.282;2023-11-19T04:14:29;10.87;;;3.40;;
12585;SDS011;6358;50.760;0.282;2023-11-19T04:16:55;7.93;;;3.33;;
12585;SDS011;6358;50.760;0.282;2023-11-19T04:19:21;7.17;;;2.87;;
12585;SDS011;6358;50.760;0.282;2023-11-19T04:21:47;9.60;;;3.80;;
12585;SDS011;6358;50.760;0.282;2023-11-19T04:24:13;8.33;;;3.40;;
12585;SDS011;6358;50.760;0.282;2023-11-19T04:26:43;8.90;;;3.70;;
12585;SDS011;6358;50.760;0.282;2023-11-19T04:29:13;10.10;;;3.50;;
12585;SDS011;6358;50.760;0.282;2023-11-19T04:31:43;8.87;;;3.13;;
12585;SDS011;6358;50.760;0.282;2023-11-19T04:34:09;11.53;;;3.70;;
12585;SDS011;6358;50.760;0.282;2023-11-19T04:36:36;9.93;;;3.73;;
12585;SDS011;6358;50.760;0.282;2023-11-19T04:39:03;10.97;;;3.47;;
12585;SDS011;6358;50.760;0.282;2023-11-19T04:41:34;9.60;;;3.57;;
12585;SDS011;6358;50.760;0.282;2023-11-19T04:44:00;12.57;;;4.10;;
12585;SDS011;6358;50.760;0.282;2023-11-19T04:46:26;11.93;;;3.80;;
12585;SDS011;6358;50.760;0.282;2023-11-19T04:48:52;8.07;;;3.03;;
12585;SDS011;6358;50.760;0.282;2023-11-19T04:51:18;9.53;;;3.83;;
12585;SDS011;6358;50.760;0.282;2023-11-19T04:53:45;11.93;;;3.87;;
12585;SDS011;6358;50.760;0.282;2023-11-19T04:56:11;11.07;;;3.80;;
12585;SDS011;6358;50.760;0.282;2023-11-19T04:58:38;9.20;;;3.90;;
12585;SDS011;6358;50.760;0.282;2023-11-19T05:01:04;9.43;;;3.57;;
12585;SDS011;6358;50.760;0.282;2023-11-19T05:03:30;8.60;;;3.43;;
12585;SDS011;6358;50.760;0.282;2023-11-19T05:05:57;9.23;;;3.70;;
12585;SDS011;6358;50.760;0.282;2023-11-19T05:08:23;9.03;;;3.63;;
12585;SDS011;6358;50.760;0.282;2023-11-19T05:10:49;9.47;;;3.47;;
12585;SDS011;6358;50.760;0.282;2023-11-19T05:13:15;10.27;;;3.60;;
12585;SDS011;6358;50.760;0.282;2023-11-19T05:15:42;8.27;;;3.57;;
12585;SDS011;6358;50.760;0.282;2023-11-19T05:18:08;11.83;;;3.77;;
12585;SDS011;6358;50.760;0.282;2023-11-19T05:20:34;11.40;;;4.20;;
12585;SDS011;6358;50.760;0.282;2023-11-19T05:23:00;10.40;;;3.60;;
12585;SDS011;6358;50.760;0.282;2023-11-19T05:25:27;9.33;;;3.77;;
12585;SDS011;6358;50.760;0.282;2023-11-19T05:27:53;5.87;;;2.90;;
12585;SDS011;6358;50.760;0.282;2023-11-19T05:30:19;11.40;;;4.07;;
12585;SDS011;6358;50.760;0.282;2023-11-19T05:32:45;9.70;;;3.87;;
12585;SDS011;6358;50.760;0.282;2023-11-19T05:35:11;10.30;;;4.23;;
12585;SDS011;6358;50.760;0.282;2023-11-19T05:37:38;11.20;;;4.27;;
12585;SDS011;6358;50.760;0.282;2023-11-19T05:40:04;10.20;;;4.03;;
12585;SDS011;6358;50.760;0.282;2023-11-19T05:42:37;8.97;;;3.53;;
12585;SDS011;6358;50.760;0.282;2023-11-19T05:45:03;9.93;;;4.23;;
12585;SDS011;6358;50.760;0.282;2023-11-19T05:47:29;9.67;;;3.37;;
12585;SDS011;6358;50.760;0.282;2023-11-19T05:49:55;8.93;;;3.20;;
12585;SDS011;6358;50.760;0.282;2023-11-19T05:52:21;7.80;;;3.53;;
12585;SDS011;6358;50.760;0.282;2023-11-19T05:54:48;11.57;;;3.80;;
12585;SDS011;6358;50.760;0.282;2023-11-19T05:57:16;8.23;;;3.57;;
12585;SDS011;6358;50.760;0.282;2023-11-19T05:59:48;10.80;;;3.87;;
12585;SDS011;6358;50.760;0.282;2023-11-19T06:02:15;8.67;;;3.77;;
12585;SDS011;6358;50.760;0.282;2023-11-19T06:04:41;11.03;;;3.60;;
12585;SDS011;6358;50.760;0.282;2023-11-19T06:07:09;10.73;;;4.03;;
12585;SDS011;6358;50.760;0.282;2023-11-19T06:09:35;10.90;;;4.10;;
12585;SDS011;6358;50.760;0.282;2023-11-19T06:12:02;8.43;;;3.67;;
12585;SDS011;6358;50.760;0.282;2023-11-19T06:14:28;10.10;;;3.90;;
12585;SDS011;6358;50.760;0.282;2023-11-19T06:16:55;9.70;;;3.80;;
12585;SDS011;6358;50.760;0.282;2023-11-19T06:19:21;11.60;;;3.67;;
12585;SDS011;6358;50.760;0.282;2023-11-19T06:21:49;9.87;;;3.40;;
12585;SDS011;6358;50.760;0.282;2023-11-19T06:24:15;8.73;;;3.63;;
12585;SDS011;6358;50.760;0.282;2023-11-19T06:26:42;11.13;;;3.53;;
12585;SDS011;6358;50.760;0.282;2023-11-19T06:29:08;11.93;;;3.57;;
12585;SDS011;6358;50.760;0.282;2023-11-19T06:31:34;8.93;;;3.23;;
12585;SDS011;6358;50.760;0.282;2023-11-19T06:34:00;10.93;;;3.90;;
12585;SDS011;6358;50.760;0.282;2023-11-19T06:36:26;10.73;;;4.00;;
12585;SDS011;6358;50.760;0.282;2023-11-19T06:38:52;12.07;;;4.20;;
12585;SDS011;6358;50.760;0.282;2023-11-19T06:41:18;11.90;;;3.80;;
12585;SDS011;6358;50.760;0.282;2023-11-19T06:43:44;9.90;;;3.37;;
12585;SDS011;6358;50.760;0.282;2023-11-19T06:46:14;10.10;;;3.23;;
12585;SDS011;6358;50.760;0.282;2023-11-19T06:48:41;8.23;;;3.60;;
12585;SDS011;6358;50.760;0.282;2023-11-19T06:51:09;8.97;;;3.27;;
12585;SDS011;6358;50.760;0.282;2023-11-19T06:53:35;8.20;;;3.53;;
12585;SDS011;6358;50.760;0.282;2023-11-19T06:56:01;9.07;;;3.47;;
12585;SDS011;6358;50.760;0.282;2023-11-19T06:58:37;7.80;;;3.30;;
12585;SDS011;6358;50.760;0.282;2023-11-19T07:01:06;8.87;;;3.70;;
12585;SDS011;6358;50.760;0.282;2023-11-19T07:03:33;9.10;;;3.33;;
12585;SDS011;6358;50.760;0.282;2023-11-19T07:06:00;8.20;;;3.30;;
12585;SDS011;6358;50.760;0.282;2023-11-19T07:08:26;9.20;;;3.53;;
12585;SDS011;6358;50.760;0.282;2023-11-19T07:10:52;8.60;;;3.67;;
12585;SDS011;6358;50.760;0.282;2023-11-19T07:13:18;8.73;;;3.07;;
12585;SDS011;6358;50.760;0.282;2023-11-19T07:15:44;8.80;;;3.57;;
12585;SDS011;6358;50.760;0.282;2023-11-19T07:18:10;8.07;;;3.07;;
12585;SDS011;6358;50.760;0.282;2023-11-19T07:20:37;10.00;;;3.23;;
12585;SDS011;6358;50.760;0.282;2023-11-19T07:23:04;8.97;;;3.40;;
12585;SDS011;6358;50.760;0.282;2023-11-19T07:25:31;8.30;;;3.13;;
12585;SDS011;6358;50.760;0.282;2023-11-19T07:27:57;7.97;;;3.27;;
12585;SDS011;6358;50.760;0.282;2023-11-19T07:30:23;7.63;;;3.10;;
12585;SDS011;6358;50.760;0.282;2023-11-19T07:32:49;7.67;;;3.27;;
12585;SDS011;6358;50.760;0.282;2023-11-19T07:35:15;8.80;;;2.90;;
12585;SDS011;6358;50.760;0.282;2023-11-19T07:37:41;8.33;;;3.10;;
12585;SDS011;6358;50.760;0.282;2023-11-19T07:40:08;5.30;;;2.77;;
12585;SDS011;6358;50.760;0.282;2023-11-19T07:42:36;11.90;;;3.13;;
12585;SDS011;6358;50.760;0.282;2023-11-19T07:45:03;7.97;;;3.07;;
12585;SDS011;6358;50.760;0.282;2023-11-19T07:47:30;9.63;;;3.20;;
12585;SDS011;6358;50.760;0.282;2023-11-19T07:49:56;12.30;;;3.77;;
12585;SDS011;6358;50.760;0.282;2023-11-19T07:52:23;12.67;;;3.93;;
12585;SDS011;6358;50.760;0.282;2023-11-19T07:54:49;9.67;;;3.60;;
12585;SDS011;6358;50.760;0.282;2023-11-19T07:57:15;9.63;;;3.70;;
12585;SDS011;6358;50.760;0.282;2023-11-19T07:59:41;10.80;;;3.83;;
12585;SDS011;6358;50.760;0.282;2023-11-19T08:02:07;10.23;;;3.90;;
12585;SDS011;6358;50.760;0.282;2023-11-19T08:04:34;11.47;;;3.50;;
12585;SDS011;6358;50.760;0.282;2023-11-19T08:07:00;11.47;;;3.33;;
12585;SDS011;6358;50.760;0.282;2023-11-19T08:09:26;13.17;;;3.83;;
12585;SDS011;6358;50.760;0.282;2023-11-19T08:11:52;10.03;;;3.30;;
12585;SDS011;6358;50.760;0.282;2023-11-19T08:14:21;11.67;;;3.70;;
12585;SDS011;6358;50.760;0.282;2023-11-19T08:16:47;10.87;;;3.03;;
12585;SDS011;6358;50.760;0.282;2023-11-19T08:19:13;11.23;;;3.80;;
12585;SDS011;6358;50.760;0.282;2023-11-19T08:21:40;10.00;;;3.70;;
12585;SDS011;6358;50.760;0.282;2023-11-19T08:24:06;11.63;;;3.50;;
12585;SDS011;6358;50.760;0.282;2023-11-19T08:26:32;7.60;;;3.27;;
12585;SDS011;6358;50.760;0.282;2023-11-19T08:28:59;8.13;;;2.57;;
12585;SDS011;6358;50.760;0.282;2023-11-19T08:31:25;6.87;;;2.70;;
12585;SDS011;6358;50.760;0.282;2023-11-19T08:33:53;8.63;;;3.20;;
12585;SDS011;6358;50.760;0.282;2023-11-19T08:36:19;9.13;;;3.20;;
12585;SDS011;6358;50.760;0.282;2023-11-19T08:38:46;11.27;;;3.33;;
12585;SDS011;6358;50.760;0.282;2023-11-19T08:41:13;8.10;;;3.80;;
12585;SDS011;6358;50.760;0.282;2023-11-19T08:43:39;13.20;;;4.03;;
12585;SDS011;6358;50.760;0.282;2023-11-19T08:46:10;8.03;;;3.47;;
12585;SDS011;6358;50.760;0.282;2023-11-19T08:48:36;8.50;;;3.50;;
12585;SDS011;6358;50.760;0.282;2023-11-19T08:51:02;11.00;;;4.07;;
12585;SDS011;6358;50.760;0.282;2023-11-19T08:53:29;9.23;;;4.03;;
12585;SDS011;6358;50.760;0.282;2023-11-19T08:55:55;10.10;;;5.37;;
12585;SDS011;6358;50.760;0.282;2023-11-19T08:58:21;18.20;;;9.97;;
12585;SDS011;6358;50.760;0.282;2023-11-19T09:00:48;19.63;;;11.83;;
12585;SDS011;6358;50.760;0.282;2023-11-19T09:03:14;19.43;;;13.07;;
12585;SDS011;6358;50.760;0.282;2023-11-19T09:05:40;21.77;;;13.37;;
12585;SDS011;6358;50.760;0.282;2023-11-19T09:08:06;21.70;;;13.20;;
12585;SDS011;6358;50.760;0.282;2023-11-19T09:10:32;21.47;;;12.77;;
12585;SDS011;6358;50.760;0.282;2023-11-19T09:12:58;19.53;;;12.90;;
12585;SDS011;6358;50.760;0.282;2023-11-19T09:15:24;17.70;;;12.30;;
12585;SDS011;6358;50.760;0.282;2023-11-19T09:17:50;18.60;;;12.63;;
12585;SDS011;6358;50.760;0.282;2023-11-19T09:20:18;21.03;;;12.83;;
12585;SDS011;6358;50.760;0.282;2023-11-19T09:22:44;16.90;;;11.80;;
12585;SDS011;6358;50.760;0.282;2023-11-19T09:25:11;18.17;;;11.83;;
12585;SDS011;6358;50.760;0.282;2023-11-19T09:27:41;18.73;;;11.13;;
12585;SDS011;6358;50.760;0.282;2023-11-19T09:30:08;18.23;;;11.13;;
12585;SDS011;6358;50.760;0.282;2023-11-19T09:32:34;18.60;;;11.40;;
12585;SDS011;6358;50.760;0.282;2023-11-19T09:35:00;19.23;;;10.90;;
12585;SDS011;6358;50.760;0.282;2023-11-19T09:37:28;15.43;;;9.77;;
12585;SDS011;6358;50.760;0.282;2023-11-19T09:39:54;18.60;;;10.23;;
12585;SDS011;6358;50.760;0.282;2023-11-19T09:42:20;14.40;;;9.47;;
12585;SDS011;6358;50.760;0.282;2023-11-19T09:44:47;16.53;;;9.70;;
12585;SDS011;6358;50.760;0.282;2023-11-19T09:47:14;15.40;;;9.03;;
12585;SDS011;6358;50.760;0.282;2023-11-19T09:49:41;14.87;;;8.40;;
12585;SDS011;6358;50.760;0.282;2023-11-19T09:52:07;12.07;;;6.53;;
12585;SDS011;6358;50.760;0.282;2023-11-19T09:54:33;14.67;;;6.70;;
12585;SDS011;6358;50.760;0.282;2023-11-19T09:56:59;11.20;;;6.27;;
12585;SDS011;6358;50.760;0.282;2023-11-19T09:59:29;16.70;;;7.77;;
12585;SDS011;6358;50.760;0.282;2023-11-19T10:01:56;12.93;;;6.40;;
12585;SDS011;6358;50.760;0.282;2023-11-19T10:04:22;10.57;;;6.13;;
12585;SDS011;6358;50.760;0.282;2023-11-19T10:06:49;11.23;;;6.00;;
12585;SDS011;6358;50.760;0.282;2023-11-19T10:09:16;12.17;;;6.23;;
12585;SDS011;6358;50.760;0.282;2023-11-19T10:11:42;11.03;;;6.10;;
12585;SDS011;6358;50.760;0.282;2023-11-19T10:14:08;14.90;;;6.60;;
12585;SDS011;6358;50.760;0.282;2023-11-19T10:16:35;16.23;;;6.83;;
12585;SDS011;6358;50.760;0.282;2023-11-19T10:19:01;14.17;;;6.33;;
12585;SDS011;6358;50.760;0.282;2023-11-19T10:21:28;15.93;;;6.47;;
12585;SDS011;6358;50.760;0.282;2023-11-19T10:23:57;13.13;;;6.53;;
12585;SDS011;6358;50.760;0.282;2023-11-19T10:26:25;9.63;;;5.30;;
12585;SDS011;6358;50.760;0.282;2023-11-19T10:28:51;12.33;;;6.30;;
12585;SDS011;6358;50.760;0.282;2023-11-19T10:31:18;10.13;;;5.70;;
12585;SDS011;6358;50.760;0.282;2023-11-19T10:33:44;11.40;;;5.40;;
12585;SDS011;6358;50.760;0.282;2023-11-19T10:36:13;10.97;;;5.30;;
12585;SDS011;6358;50.760;0.282;2023-11-19T10:38:40;10.30;;;5.27;;
12585;SDS011;6358;50.760;0.282;2023-11-19T10:41:07;11.93;;;5.27;;
12585;SDS011;6358;50.760;0.282;2023-11-19T10:43:42;9.70;;;5.03;;
12585;SDS011;6358;50.760;0.282;2023-11-19T10:46:12;12.37;;;5.30;;
12585;SDS011;6358;50.760;0.282;2023-11-19T10:48:39;10.37;;;4.73;;
12585;SDS011;6358;50.760;0.282;2023-11-19T10:51:05;12.33;;;5.33;;
12585;SDS011;6358;50.760;0.282;2023-11-19T10:53:36;9.50;;;4.60;;
12585;SDS011;6358;50.760;0.282;2023-11-19T10:56:04;13.70;;;4.43;;
12585;SDS011;6358;50.760;0.282;2023-11-19T10:58:31;10.63;;;4.47;;
12585;SDS011;6358;50.760;0.282;2023-11-19T11:01:01;10.30;;;4.80;;
12585;SDS011;6358;50.760;0.282;2023-11-19T11:03:29;13.57;;;4.27;;
12585;SDS011;6358;50.760;0.282;2023-11-19T11:05:57;10.67;;;3.83;;
12585;SDS011;6358;50.760;0.282;2023-11-19T11:08:23;12.90;;;5.20;;
12585;SDS011;6358;50.760;0.282;2023-11-19T11:10:56;14.13;;;6.00;;
12585;SDS011;6358;50.760;0.282;2023-11-19T11:13:26;25.20;;;12.80;;
12585;SDS011;6358;50.760;0.282;2023-11-19T11:15:56;20.83;;;10.43;;
12585;SDS011;6358;50.760;0.282;2023-11-19T11:18:23;23.77;;;9.30;;
12585;SDS011;6358;50.760;0.282;2023-11-19T11:26:19;66.03;;;35.40;;
12585;SDS011;6358;50.760;0.282;2023-11-19T11:36:31;36.83;;;19.37;;
12585;SDS011;6358;50.760;0.282;2023-11-19T11:39:00;28.63;;;15.27;;
12585;SDS011;6358;50.760;0.282;2023-11-19T11:41:28;31.87;;;14.57;;
12585;SDS011;6358;50.760;0.282;2023-11-19T11:43:55;26.03;;;12.77;;
12585;SDS011;6358;50.760;0.282;2023-11-19T11:49:04;33.60;;;13.10;;
12585;SDS011;6358;50.760;0.282;2023-11-19T11:54:09;32.27;;;12.53;;
12585;SDS011;6358;50.760;0.282;2023-11-19T11:56:38;40.77;;;12.43;;
12585;SDS011;6358;50.760;0.282;2023-11-19T11:59:08;33.10;;;11.93;;
12585;SDS011;6358;50.760;0.282;2023-11-19T12:01:35;26.67;;;10.73;;
12585;SDS011;6358;50.760;0.282;2023-11-19T12:04:01;24.00;;;9.97;;
12585;SDS011;6358;50.760;0.282;2023-11-19T12:06:27;24.70;;;10.43;;
12585;SDS011;6358;50.760;0.282;2023-11-19T12:08:59;29.47;;;9.50;;
12585;SDS011;6358;50.760;0.282;2023-11-19T12:11:25;21.40;;;8.20;;
12585;SDS011;6358;50.760;0.282;2023-11-19T12:13:55;19.67;;;9.10;;
12585;SDS011;6358;50.760;0.282;2023-11-19T12:16:24;24.77;;;8.20;;
12585;SDS011;6358;50.760;0.282;2023-11-19T12:18:52;23.13;;;9.13;;
12585;SDS011;6358;50.760;0.282;2023-11-19T12:21:28;24.13;;;8.63;;
12585;SDS011;6358;50.760;0.282;2023-11-19T12:23:55;23.93;;;7.50;;
12585;SDS011;6358;50.760;0.282;2023-11-19T12:26:30;18.97;;;7.40;;
12585;SDS011;6358;50.760;0.282;2023-11-19T12:28:58;22.03;;;7.90;;
12585;SDS011;6358;50.760;0.282;2023-11-19T12:31:24;17.30;;;7.10;;
12585;SDS011;6358;50.760;0.282;2023-11-19T12:33:51;19.00;;;7.37;;
12585;SDS011;6358;50.760;0.282;2023-11-19T12:36:18;17.57;;;7.00;;
12585;SDS011;6358;50.760;0.282;2023-11-19T12:38:44;18.93;;;7.43;;
12585;SDS011;6358;50.760;0.282;2023-11-19T12:41:11;19.53;;;6.60;;
12585;SDS011;6358;50.760;0.282;2023-11-19T12:43:38;14.77;;;6.57;;
12585;SDS011;6358;50.760;0.282;2023-11-19T12:46:20;18.77;;;6.50;;
12585;SDS011;6358;50.760;0.282;2023-11-19T12:48:47;15.33;;;6.17;;
12585;SDS011;6358;50.760;0.282;2023-11-19T12:51:13;14.97;;;5.83;;
12585;SDS011;6358;50.760;0.282;2023-11-19T12:56:22;16.47;;;6.33;;
12585;SDS011;6358;50.760;0.282;2023-11-19T12:58:49;15.57;;;5.57;;
12585;SDS011;6358;50.760;0.282;2023-11-19T13:01:18;12.13;;;5.67;;
12585;SDS011;6358;50.760;0.282;2023-11-19T13:03:45;15.13;;;5.50;;
12585;SDS011;6358;50.760;0.282;2023-11-19T13:06:12;12.40;;;5.43;;
12585;SDS011;6358;50.760;0.282;2023-11-19T13:08:44;13.90;;;5.47;;
12585;SDS011;6358;50.760;0.282;2023-11-19T13:11:10;12.77;;;5.10;;
12585;SDS011;6358;50.760;0.282;2023-11-19T13:16:22;11.97;;;4.70;;
12585;SDS011;6358;50.760;0.282;2023-11-19T13:18:48;11.40;;;5.03;;
12585;SDS011;6358;50.760;0.282;2023-11-19T13:21:14;14.30;;;5.13;;
12585;SDS011;6358;50.760;0.282;2023-11-19T13:23:40;10.50;;;4.43;;
12585;SDS011;6358;50.760;0.282;2023-11-19T13:26:08;11.57;;;4.10;;
12585;SDS011;6358;50.760;0.282;2023-11-19T13:28:34;11.37;;;4.90;;
12585;SDS011;6358;50.760;0.282;2023-11-19T13:31:00;12.53;;;5.17;;
12585;SDS011;6358;50.760;0.282;2023-11-19T13:33:27;12.77;;;4.80;;
12585;SDS011;6358;50.760;0.282;2023-11-19T13:35:54;12.90;;;5.00;;
12585;SDS011;6358;50.760;0.282;2023-11-19T13:38:20;11.43;;;4.40;;
12585;SDS011;6358;50.760;0.282;2023-11-19T13:40:48;12.00;;;4.80;;
12585;SDS011;6358;50.760;0.282;2023-11-19T13:43:15;11.87;;;4.73;;
12585;SDS011;6358;50.760;0.282;2023-11-19T13:45:41;10.10;;;4.80;;
12585;SDS011;6358;50.760;0.282;2023-11-19T13:48:07;9.10;;;3.80;;
12585;SDS011;6358;50.760;0.282;2023-11-19T13:50:34;8.37;;;3.90;;
12585;SDS011;6358;50.760;0.282;2023-11-19T13:53:00;10.90;;;4.23;;
12585;SDS011;6358;50.760;0.282;2023-11-19T13:55:26;11.87;;;4.70;;
12585;SDS011;6358;50.760;0.282;2023-11-19T13:57:52;11.00;;;4.40;;
12585;SDS011;6358;50.760;0.282;2023-11-19T14:00:20;12.17;;;4.40;;
12585;SDS011;6358;50.760;0.282;2023-11-19T14:02:48;11.07;;;4.50;;
12585;SDS011;6358;50.760;0.282;2023-11-19T14:05:14;11.53;;;4.20;;
12585;SDS011;6358;50.760;0.282;2023-11-19T14:07:42;11.67;;;4.40;;
12585;SDS011;6358;50.760;0.282;2023-11-19T14:10:09;8.73;;;4.00;;
12585;SDS011;6358;50.760;0.282;2023-11-19T14:12:36;10.07;;;4.37;;
12585;SDS011;6358;50.760;0.282;2023-11-19T14:15:03;11.57;;;4.07;;
12585;SDS011;6358;50.760;0.282;2023-11-19T14:17:31;10.97;;;4.40;;
12585;SDS011;6358;50.760;0.282;2023-11-19T14:19:57;9.30;;;3.83;;
12585;SDS011;6358;50.760;0.282;2023-11-19T14:22:23;9.57;;;3.73;;
12585;SDS011;6358;50.760;0.282;2023-11-19T14:24:50;8.10;;;3.70;;
12585;SDS011;6358;50.760;0.282;2023-11-19T14:27:16;10.83;;;4.20;;
12585;SDS011;6358;50.760;0.282;2023-11-19T14:29:42;9.40;;;3.57;;
12585;SDS011;6358;50.760;0.282;2023-11-19T14:32:10;7.30;;;3.10;;
12585;SDS011;6358;50.760;0.282;2023-11-19T14:34:36;9.63;;;4.20;;
12585;SDS011;6358;50.760;0.282;2023-11-19T14:37:03;8.50;;;3.33;;
12585;SDS011;6358;50.760;0.282;2023-11-19T14:39:29;9.87;;;3.80;;
12585;SDS011;6358;50.760;0.282;2023-11-19T14:41:59;9.80;;;4.03;;
12585;SDS011;6358;50.760;0.282;2023-11-19T14:44:29;9.00;;;3.53;;
12585;SDS011;6358;50.760;0.282;2023-11-19T14:46:56;8.17;;;3.33;;
12585;SDS011;6358;50.760;0.282;2023-11-19T14:49:22;8.83;;;4.03;;
12585;SDS011;6358;50.760;0.282;2023-11-19T14:51:49;8.90;;;3.90;;
12585;SDS011;6358;50.760;0.282;2023-11-19T14:54:15;8.10;;;3.50;;
12585;SDS011;6358;50.760;0.282;2023-11-19T14:56:41;7.23;;;3.13;;
12585;SDS011;6358;50.760;0.282;2023-11-19T14:59:08;8.00;;;3.77;;
12585;SDS011;6358;50.760;0.282;2023-11-19T15:01:34;8.73;;;3.57;;
12585;SDS011;6358;50.760;0.282;2023-11-19T15:04:00;7.83;;;3.40;;
12585;SDS011;6358;50.760;0.282;2023-11-19T15:06:26;8.63;;;3.70;;
12585;SDS011;6358;50.760;0.282;2023-11-19T15:08:52;7.90;;;3.53;;
12585;SDS011;6358;50.760;0.282;2023-11-19T15:11:20;6.47;;;3.40;;
12585;SDS011;6358;50.760;0.282;2023-11-19T15:13:46;10.50;;;3.70;;
12585;SDS011;6358;50.760;0.282;2023-11-19T15:16:12;7.40;;;3.13;;
12585;SDS011;6358;50.760;0.282;2023-11-19T15:18:39;9.53;;;3.60;;